createdAt,value
2022-10-18T00:01:34.576Z,8.48
2022-10-18T00:04:04.097Z,8.42
2022-10-18T00:06:33.155Z,8.38
2022-10-18T00:09:02.249Z,8.32
2022-10-18T00:11:31.838Z,8.25
2022-10-18T00:14:02.424Z,8.16
2022-10-18T00:16:31.706Z,8.15
2022-10-18T00:19:00.797Z,8.14
2022-10-18T00:21:29.783Z,8.15
2022-10-18T00:23:58.828Z,8.02
2022-10-18T00:26:32.052Z,7.94
2022-10-18T00:29:07.029Z,7.96
2022-10-18T00:31:38.892Z,7.92
2022-10-18T00:34:14.390Z,7.86
2022-10-18T00:36:44.650Z,7.94
2022-10-18T00:39:18.803Z,7.95
2022-10-18T00:41:48.271Z,7.96
2022-10-18T00:45:18.545Z,7.94
2022-10-18T00:47:54.649Z,7.78
2022-10-18T00:50:26.208Z,7.73
2022-10-18T00:52:59.971Z,7.74
2022-10-18T00:55:30.433Z,7.70
2022-10-18T00:58:02.845Z,7.76
2022-10-18T01:00:34.796Z,7.81
2022-10-18T01:03:04.075Z,7.88
2022-10-18T01:05:33.979Z,7.95
2022-10-18T01:08:39.289Z,7.89
2022-10-18T01:11:52.844Z,7.86
2022-10-18T01:14:36.912Z,7.70
2022-10-18T01:17:16.451Z,7.74
2022-10-18T01:20:08.460Z,7.63
2022-10-18T01:22:44.731Z,7.59
2022-10-18T01:25:31.313Z,7.39
2022-10-18T01:28:13.884Z,7.29
2022-10-18T01:30:51.432Z,7.30
2022-10-18T01:33:32.684Z,7.41
2022-10-18T01:36:07.447Z,7.50
2022-10-18T01:38:39.036Z,7.44
2022-10-18T01:41:14.779Z,7.42
2022-10-18T01:43:49.614Z,7.39
2022-10-18T01:46:25.834Z,7.34
2022-10-18T01:48:56.430Z,7.40
2022-10-18T01:51:27.197Z,7.48
2022-10-18T01:53:56.924Z,7.63
2022-10-18T01:56:42.948Z,7.78
2022-10-18T01:59:36.381Z,7.66
2022-10-18T02:02:19.946Z,7.50
2022-10-18T02:05:00.817Z,7.30
2022-10-18T02:07:37.725Z,7.07
2022-10-18T02:12:47.636Z,6.98
2022-10-18T02:15:26.172Z,6.90
2022-10-18T02:17:58.345Z,6.94
2022-10-18T02:20:29.074Z,6.98
2022-10-18T02:23:00.649Z,7.02
2022-10-18T02:25:32.851Z,6.96
2022-10-18T02:28:03.354Z,6.96
2022-10-18T02:30:38.357Z,7.05
2022-10-18T02:33:17.136Z,7.04
2022-10-18T02:35:50.888Z,7.09
2022-10-18T02:38:22.284Z,7.06
2022-10-18T02:40:51.506Z,7.00
2022-10-18T02:43:20.630Z,6.94
2022-10-18T02:45:49.743Z,6.87
2022-10-18T02:48:20.141Z,6.91
2022-10-18T02:50:49.244Z,6.85
2022-10-18T02:53:18.284Z,6.74
2022-10-18T02:55:47.375Z,6.68
2022-10-18T02:58:16.365Z,6.61
2022-10-18T03:00:45.350Z,6.61
2022-10-18T03:03:14.366Z,6.72
2022-10-18T03:05:44.772Z,6.73
2022-10-18T03:08:13.848Z,6.73
2022-10-18T03:10:45.076Z,6.78
2022-10-18T03:13:14.506Z,7.05
2022-10-18T03:15:43.606Z,7.10
2022-10-18T03:18:12.697Z,6.83
2022-10-18T03:20:42.060Z,6.72
2022-10-18T03:23:12.504Z,6.66
2022-10-18T03:25:44.246Z,6.59
2022-10-18T03:28:15.447Z,6.57
2022-10-18T03:30:44.497Z,6.58
2022-10-18T03:33:14.047Z,6.58
2022-10-18T03:35:43.103Z,6.53
2022-10-18T03:38:13.531Z,6.60
2022-10-18T03:40:42.592Z,6.55
2022-10-18T03:43:11.836Z,6.59
2022-10-18T03:45:41.859Z,6.55
2022-10-18T03:48:11.160Z,6.58
2022-10-18T03:50:40.297Z,6.60
2022-10-18T03:53:09.389Z,6.62
2022-10-18T03:55:42.406Z,6.58
2022-10-18T03:58:12.628Z,6.56
2022-10-18T04:00:41.690Z,6.46
2022-10-18T04:03:10.705Z,6.45
2022-10-18T04:05:39.779Z,6.41
2022-10-18T04:08:08.905Z,6.38
2022-10-18T04:10:41.026Z,6.30
2022-10-18T04:13:10.160Z,6.27
2022-10-18T04:15:39.280Z,6.22
2022-10-18T04:18:10.282Z,6.24
2022-10-18T04:20:39.416Z,6.21
2022-10-18T04:23:08.553Z,6.17
2022-10-18T04:25:39.166Z,6.20
2022-10-18T04:28:08.241Z,6.23
2022-10-18T04:30:37.519Z,6.21
2022-10-18T04:33:06.658Z,6.12
2022-10-18T04:35:35.690Z,6.09
2022-10-18T04:38:04.818Z,6.08
2022-10-18T04:40:33.792Z,6.02
2022-10-18T04:43:18.358Z,6.10
2022-10-18T04:45:48.276Z,6.02
2022-10-18T04:48:20.670Z,6.03
2022-10-18T04:50:50.505Z,6.06
2022-10-18T04:53:20.094Z,6.07
2022-10-18T04:55:50.902Z,6.05
2022-10-18T04:58:21.589Z,5.98
2022-10-18T05:00:51.056Z,5.98
2022-10-18T05:03:20.455Z,6.00
2022-10-18T05:06:01.344Z,6.12
2022-10-18T05:08:32.046Z,6.07
2022-10-18T05:11:01.924Z,6.13
2022-10-18T05:13:32.908Z,6.11
2022-10-18T05:16:02.642Z,6.12
2022-10-18T05:18:31.751Z,6.11
2022-10-18T05:21:00.808Z,6.13
2022-10-18T05:23:29.857Z,6.08
2022-10-18T05:26:04.451Z,6.01
2022-10-18T05:28:40.163Z,6.03
2022-10-18T05:31:11.741Z,6.06
2022-10-18T05:33:40.855Z,6.07
2022-10-18T05:36:11.198Z,6.07
2022-10-18T05:38:42.940Z,6.13
2022-10-18T05:41:13.046Z,6.23
2022-10-18T05:43:43.748Z,6.24
2022-10-18T05:46:15.500Z,6.54
2022-10-18T05:48:45.370Z,6.64
2022-10-18T05:51:14.361Z,6.58
2022-10-18T05:53:46.042Z,6.60
2022-10-18T05:56:15.408Z,6.58
2022-10-18T05:58:45.903Z,6.57
2022-10-18T06:01:15.242Z,6.51
2022-10-18T06:03:44.509Z,6.49
2022-10-18T06:06:15.078Z,6.56
2022-10-18T06:08:45.401Z,6.76
2022-10-18T06:11:20.243Z,6.86
2022-10-18T06:13:52.719Z,6.93
2022-10-18T06:16:27.300Z,7.06
2022-10-18T06:18:59.916Z,7.14
2022-10-18T06:21:28.977Z,7.29
2022-10-18T06:23:59.995Z,7.36
2022-10-18T06:26:29.740Z,7.53
2022-10-18T06:29:00.479Z,7.71
2022-10-18T06:31:29.595Z,7.83
2022-10-18T06:33:59.721Z,7.84
2022-10-18T06:36:28.893Z,8.03
2022-10-18T06:38:59.986Z,8.18
2022-10-18T06:41:31.337Z,8.32
2022-10-18T06:44:19.487Z,8.49
2022-10-18T06:46:50.204Z,8.58
2022-10-18T06:49:20.138Z,8.79
2022-10-18T06:51:49.469Z,8.95
2022-10-18T06:54:19.060Z,9.04
2022-10-18T06:56:48.402Z,9.20
2022-10-18T06:59:19.086Z,9.30
2022-10-18T07:01:48.134Z,9.40
2022-10-18T07:04:18.167Z,9.63
2022-10-18T07:06:47.328Z,9.79
2022-10-18T07:09:16.345Z,9.93
2022-10-18T07:11:45.397Z,10.18
2022-10-18T07:14:16.495Z,10.40
2022-10-18T07:16:47.152Z,10.68
2022-10-18T07:19:16.433Z,10.87
2022-10-18T07:21:45.456Z,10.93
2022-10-18T07:24:14.717Z,11.05
2022-10-18T07:26:47.747Z,11.03
2022-10-18T07:29:16.796Z,11.10
2022-10-18T07:31:49.089Z,11.35
2022-10-18T07:34:18.159Z,11.48
2022-10-18T07:36:47.322Z,11.59
2022-10-18T07:39:16.363Z,11.73
2022-10-18T07:41:45.414Z,11.96
2022-10-18T07:44:14.457Z,12.22
2022-10-18T07:46:43.513Z,12.40
2022-10-18T07:49:13.921Z,12.54
2022-10-18T07:51:43.023Z,12.61
2022-10-18T07:54:12.047Z,12.75
2022-10-18T07:56:41.334Z,12.79
2022-10-18T07:59:11.282Z,12.96
2022-10-18T08:01:40.670Z,13.11
2022-10-18T08:04:12.772Z,13.28
2022-10-18T08:06:47.539Z,13.41
2022-10-18T08:09:16.529Z,13.53
2022-10-18T08:11:45.580Z,13.49
2022-10-18T08:14:15.326Z,13.63
2022-10-18T08:16:44.377Z,13.71
2022-10-18T08:19:13.421Z,13.91
2022-10-18T08:21:42.656Z,14.00
2022-10-18T08:24:13.095Z,14.21
2022-10-18T08:26:42.196Z,14.36
2022-10-18T08:29:31.704Z,14.52
2022-10-18T08:32:01.121Z,14.72
2022-10-18T08:34:30.165Z,14.93
2022-10-18T08:36:59.232Z,15.07
2022-10-18T08:39:29.859Z,15.24
2022-10-18T08:42:45.896Z,15.31
2022-10-18T08:45:30.031Z,15.48
2022-10-18T08:48:08.034Z,15.61
2022-10-18T08:50:38.802Z,15.73
2022-10-18T08:53:18.670Z,15.81
2022-10-18T08:55:53.501Z,15.97
2022-10-18T08:58:25.049Z,16.08
2022-10-18T09:01:09.817Z,16.30
2022-10-18T09:04:03.502Z,16.61
2022-10-18T09:06:36.882Z,16.92
2022-10-18T09:09:24.209Z,17.11
2022-10-18T09:12:10.563Z,17.25
2022-10-18T09:15:13.915Z,17.36
2022-10-18T09:17:57.024Z,17.51
2022-10-18T09:20:29.677Z,17.62
2022-10-18T09:23:07.836Z,17.77
2022-10-18T09:25:52.101Z,17.92
2022-10-18T09:28:34.434Z,18.12
2022-10-18T09:31:12.226Z,18.04
2022-10-18T09:33:50.312Z,18.10
2022-10-18T09:36:23.151Z,18.22
2022-10-18T09:38:59.886Z,18.26
2022-10-18T09:41:35.604Z,18.36
2022-10-18T09:44:15.756Z,18.49
2022-10-18T09:46:51.993Z,18.52
2022-10-18T09:49:25.600Z,18.62
2022-10-18T09:51:56.483Z,18.73
2022-10-18T09:54:32.135Z,18.85
2022-10-18T09:57:05.807Z,19.00
2022-10-18T09:59:41.425Z,19.04
2022-10-18T10:02:15.338Z,19.04
2022-10-18T10:04:44.787Z,19.16
2022-10-18T10:07:17.788Z,19.23
2022-10-18T10:09:50.009Z,19.34
2022-10-18T10:12:32.244Z,19.43
2022-10-18T10:15:20.441Z,19.46
2022-10-18T10:17:57.812Z,19.52
2022-10-18T10:20:30.106Z,19.57
2022-10-18T10:23:09.495Z,19.59
2022-10-18T10:25:39.926Z,19.64
2022-10-18T10:28:16.876Z,19.70
2022-10-18T10:30:47.301Z,19.85
2022-10-18T10:33:38.163Z,19.93
2022-10-18T10:36:19.049Z,20.10
2022-10-18T10:39:03.010Z,20.20
2022-10-18T10:44:17.812Z,20.40
2022-10-18T10:46:50.944Z,20.52
2022-10-18T10:52:36.566Z,20.77
2022-10-18T10:55:34.149Z,20.60
2022-10-18T10:58:04.092Z,20.70
2022-10-18T11:00:50.602Z,20.83
2022-10-18T11:03:29.132Z,20.90
2022-10-18T11:06:01.028Z,20.90
2022-10-18T11:08:37.015Z,20.86
2022-10-18T11:11:20.679Z,21.01
2022-10-18T11:14:20.601Z,21.23
2022-10-18T11:16:56.212Z,21.26
2022-10-18T11:19:41.952Z,21.34
2022-10-18T11:22:19.895Z,21.24
2022-10-18T11:24:49.556Z,21.42
2022-10-18T11:27:25.301Z,21.53
2022-10-18T11:30:12.542Z,21.64
2022-10-18T11:32:53.576Z,21.80
2022-10-18T11:35:42.341Z,21.55
2022-10-18T11:38:30.395Z,21.78
2022-10-18T11:41:22.577Z,22.08
2022-10-18T11:44:04.043Z,22.62
2022-10-18T11:46:51.500Z,22.75
2022-10-18T11:49:44.704Z,23.26
2022-10-18T11:52:25.000Z,23.53
2022-10-18T11:55:11.921Z,24.14
2022-10-18T11:57:56.894Z,24.70
2022-10-18T12:00:49.221Z,24.79
2022-10-18T12:03:39.446Z,24.57
2022-10-18T12:06:19.313Z,24.26
2022-10-18T12:08:58.597Z,24.12
2022-10-18T12:11:32.999Z,24.26
2022-10-18T12:14:09.018Z,24.95
2022-10-18T12:17:20.186Z,25.28
2022-10-18T12:19:34.604Z,25.37
2022-10-18T12:22:15.772Z,25.37
2022-10-18T12:24:48.677Z,25.15
2022-10-18T12:27:18.756Z,25.00
2022-10-18T12:29:56.291Z,24.95
2022-10-18T12:32:35.996Z,24.97
2022-10-18T12:35:13.972Z,25.14
2022-10-18T12:38:19.008Z,25.05
2022-10-18T12:40:54.722Z,25.10
2022-10-18T12:43:34.063Z,25.48
2022-10-18T12:46:07.232Z,25.69
2022-10-18T12:49:04.568Z,25.13
2022-10-18T12:51:33.681Z,25.49
2022-10-18T12:54:12.904Z,25.76
2022-10-18T12:56:46.831Z,25.92
2022-10-18T12:59:42.621Z,25.87
2022-10-18T13:02:27.752Z,26.62
2022-10-18T13:07:44.897Z,28.44
2022-10-18T13:10:41.969Z,28.23
2022-10-18T13:13:41.869Z,27.58
2022-10-18T13:16:32.175Z,27.50
2022-10-18T13:19:18.520Z,28.98
2022-10-18T13:21:59.439Z,30.46
2022-10-18T13:24:37.177Z,31.65
2022-10-18T13:27:41.587Z,32.71
2022-10-18T13:30:33.048Z,33.80
2022-10-18T13:33:27.889Z,34.85
2022-10-18T13:36:00.441Z,33.86
2022-10-18T13:38:42.844Z,32.59
2022-10-18T13:41:14.262Z,31.34
2022-10-18T13:44:23.772Z,30.13
2022-10-18T13:47:14.439Z,30.11
2022-10-18T13:50:16.666Z,30.57
2022-10-18T13:53:29.592Z,31.14
2022-10-18T13:56:31.028Z,31.54
2022-10-18T13:59:22.113Z,32.57
2022-10-18T14:02:15.064Z,33.54
2022-10-18T14:05:23.676Z,35.09
2022-10-18T14:08:01.330Z,36.71
2022-10-18T14:10:57.321Z,37.57
2022-10-18T14:13:40.668Z,38.52
2022-10-18T14:16:30.767Z,38.66
2022-10-18T14:19:19.198Z,38.44
2022-10-18T14:21:59.446Z,38.06
2022-10-18T14:24:30.283Z,38.38
2022-10-18T14:27:19.233Z,38.41
2022-10-18T14:29:49.655Z,38.23
2022-10-18T14:32:27.873Z,38.24
2022-10-18T14:35:27.242Z,38.18
2022-10-18T14:37:50.735Z,37.92
2022-10-18T14:40:38.956Z,37.54
2022-10-18T14:43:13.872Z,37.36
2022-10-18T14:45:44.219Z,37.20
2022-10-18T14:48:23.766Z,36.90
2022-10-18T14:51:00.575Z,36.48
2022-10-18T14:53:36.039Z,34.53
2022-10-18T14:56:09.305Z,33.35
2022-10-18T14:58:42.777Z,31.32
2022-10-18T15:01:18.049Z,29.44
2022-10-18T15:03:48.104Z,27.97
2022-10-18T15:06:19.889Z,26.88
2022-10-18T15:08:56.667Z,25.87
2022-10-18T15:11:27.101Z,25.00
2022-10-18T15:14:00.464Z,24.38
2022-10-18T15:16:34.017Z,23.97
2022-10-18T15:19:30.023Z,23.50
2022-10-18T15:22:32.816Z,23.16
2022-10-18T15:25:14.789Z,22.71
2022-10-18T15:27:47.752Z,22.40
2022-10-18T15:30:24.006Z,22.11
2022-10-18T15:32:56.215Z,21.60
2022-10-18T15:35:28.730Z,21.27
2022-10-18T15:38:02.537Z,21.00
2022-10-18T15:40:42.756Z,20.63
2022-10-18T15:43:38.036Z,20.23
2022-10-18T15:46:07.820Z,19.85
2022-10-18T15:48:41.256Z,19.51
2022-10-18T15:51:38.308Z,19.02
2022-10-18T15:54:15.018Z,18.52
2022-10-18T15:56:46.008Z,18.26
2022-10-18T15:59:25.523Z,18.01
2022-10-18T16:01:55.322Z,17.82
2022-10-18T16:04:27.897Z,17.61
2022-10-18T16:06:58.367Z,17.36
2022-10-18T16:09:29.859Z,17.09
2022-10-18T16:12:00.497Z,16.80
2022-10-18T16:14:30.130Z,16.55
2022-10-18T16:17:03.557Z,16.41
2022-10-18T16:19:33.684Z,16.27
2022-10-18T16:22:06.671Z,15.97
2022-10-18T16:24:40.514Z,15.60
2022-10-18T16:27:12.431Z,15.45
2022-10-18T16:29:41.746Z,15.40
2022-10-18T16:32:10.937Z,15.46
2022-10-18T16:34:40.025Z,15.40
2022-10-18T16:37:09.252Z,15.42
2022-10-18T16:39:38.478Z,15.47
2022-10-18T16:42:07.642Z,15.28
2022-10-18T16:44:39.096Z,15.02
2022-10-18T16:47:08.193Z,15.02
2022-10-18T16:49:37.330Z,14.76
2022-10-18T16:52:06.602Z,14.54
2022-10-18T16:54:35.873Z,14.58
2022-10-18T16:57:05.282Z,14.69
2022-10-18T16:59:34.478Z,14.92
2022-10-18T17:02:09.033Z,14.82
2022-10-18T17:04:38.207Z,14.69
2022-10-18T17:07:07.325Z,14.41
2022-10-18T17:09:37.050Z,14.25
2022-10-18T17:12:06.886Z,14.09
2022-10-18T17:14:37.022Z,14.08
2022-10-18T17:17:07.764Z,14.16
2022-10-18T17:19:36.850Z,14.15
2022-10-18T17:22:05.948Z,13.96
2022-10-18T17:24:35.024Z,13.85
2022-10-18T17:27:04.279Z,13.81
2022-10-18T17:29:33.358Z,13.78
2022-10-18T17:32:02.451Z,13.84
2022-10-18T17:34:32.985Z,13.85
2022-10-18T17:37:02.044Z,13.89
2022-10-18T17:39:32.495Z,13.78
2022-10-18T17:42:01.748Z,13.69
2022-10-18T17:44:30.952Z,13.53
2022-10-18T17:47:02.113Z,13.45
2022-10-18T17:49:32.792Z,13.43
2022-10-18T17:52:06.908Z,13.39
2022-10-18T17:54:36.310Z,13.40
2022-10-18T17:57:06.798Z,13.30
2022-10-18T17:59:36.177Z,13.31
2022-10-18T18:02:05.515Z,13.30
2022-10-18T18:04:36.108Z,13.38
2022-10-18T18:07:05.551Z,13.32
2022-10-18T18:09:34.923Z,13.20
2022-10-18T18:12:04.752Z,13.02
2022-10-18T18:14:33.978Z,13.00
2022-10-18T18:17:06.708Z,12.99
2022-10-18T18:19:39.963Z,12.94
2022-10-18T18:22:11.014Z,12.87
2022-10-18T18:24:42.753Z,13.10
2022-10-18T18:27:12.959Z,13.17
2022-10-18T18:29:42.394Z,13.12
2022-10-18T18:32:14.496Z,13.24
2022-10-18T18:34:47.851Z,13.11
2022-10-18T18:37:17.521Z,12.95
2022-10-18T18:39:46.909Z,12.81
2022-10-18T18:42:16.496Z,12.64
2022-10-18T18:44:47.247Z,12.54
2022-10-18T18:47:21.835Z,12.47
2022-10-18T18:49:53.761Z,12.55
2022-10-18T18:52:26.258Z,12.78
2022-10-18T18:54:55.561Z,12.88
2022-10-18T18:57:26.112Z,12.75
2022-10-18T18:59:55.552Z,12.60
2022-10-18T19:02:24.959Z,12.52
2022-10-18T19:04:55.699Z,12.40
2022-10-18T19:07:25.157Z,12.44
2022-10-18T19:09:55.344Z,12.38
2022-10-18T19:12:24.565Z,12.36
2022-10-18T19:14:53.830Z,12.22
2022-10-18T19:17:23.962Z,12.12
2022-10-18T19:19:57.690Z,12.13
2022-10-18T19:22:27.170Z,12.14
2022-10-18T19:24:56.572Z,12.43
2022-10-18T19:27:25.738Z,12.46
2022-10-18T19:29:55.078Z,12.53
2022-10-18T19:32:24.383Z,12.55
2022-10-18T19:34:55.292Z,12.46
2022-10-18T19:37:24.648Z,12.35
2022-10-18T19:39:54.004Z,12.24
2022-10-18T19:42:27.485Z,12.27
2022-10-18T19:44:59.791Z,12.17
2022-10-18T19:47:28.969Z,11.95
2022-10-18T19:49:59.780Z,11.84
2022-10-18T19:52:29.927Z,11.69
2022-10-18T19:55:01.535Z,11.67
2022-10-18T19:57:30.951Z,11.67
2022-10-18T20:00:00.962Z,11.69
2022-10-18T20:02:40.686Z,11.83
2022-10-18T20:05:12.096Z,11.87
2022-10-18T20:07:42.742Z,11.77
2022-10-18T20:10:12.154Z,11.74
2022-10-18T20:12:41.493Z,11.57
2022-10-18T20:15:12.291Z,11.57
2022-10-18T20:17:41.407Z,11.46
2022-10-18T20:20:13.292Z,11.60
2022-10-18T20:22:42.326Z,11.62
2022-10-18T20:25:11.555Z,11.57
2022-10-18T20:27:40.905Z,11.32
2022-10-18T20:30:11.556Z,11.18
2022-10-18T20:32:41.499Z,11.28
2022-10-18T20:35:12.263Z,11.26
2022-10-18T20:37:41.325Z,11.27
2022-10-18T20:40:12.583Z,11.37
2022-10-18T20:42:41.817Z,11.25
2022-10-18T20:45:12.451Z,11.30
2022-10-18T20:47:41.553Z,11.36
2022-10-18T20:50:12.390Z,11.34
2022-10-18T20:52:41.491Z,11.16
2022-10-18T20:55:11.084Z,11.11
2022-10-18T20:57:40.394Z,11.07
2022-10-18T21:00:12.933Z,11.05
2022-10-18T21:02:41.987Z,11.12
2022-10-18T21:05:12.574Z,11.09
2022-10-18T21:07:41.677Z,11.11
2022-10-18T21:10:10.965Z,11.20
2022-10-18T21:12:40.100Z,11.25
2022-10-18T21:15:12.394Z,11.26
2022-10-18T21:17:41.578Z,11.39
2022-10-18T21:20:13.465Z,11.35
2022-10-18T21:22:42.551Z,11.18
2022-10-18T21:25:11.706Z,11.02
2022-10-18T21:27:41.612Z,11.06
2022-10-18T21:32:46.299Z,11.02
2022-10-18T21:35:16.944Z,10.91
2022-10-18T21:37:46.022Z,10.79
2022-10-18T21:40:15.150Z,10.71
2022-10-18T21:42:44.359Z,10.81
2022-10-18T21:45:13.419Z,10.82
2022-10-18T21:47:42.590Z,10.89
2022-10-18T21:50:11.884Z,10.93
2022-10-18T21:52:42.403Z,10.91
2022-10-18T21:55:12.095Z,10.79
2022-10-18T21:57:41.215Z,10.67
2022-10-18T22:00:13.052Z,10.73
2022-10-18T22:02:43.110Z,10.67
2022-10-18T22:05:12.318Z,10.88
2022-10-18T22:07:42.872Z,10.99
2022-10-18T22:10:11.940Z,10.76
2022-10-18T22:12:41.025Z,10.68
2022-10-18T22:15:11.231Z,10.58
2022-10-18T22:17:40.350Z,10.67
2022-10-18T22:20:11.686Z,10.71
2022-10-18T22:22:42.159Z,10.77
2022-10-18T22:25:11.374Z,10.63
2022-10-18T22:27:40.496Z,10.47
2022-10-18T22:30:11.188Z,10.34
2022-10-18T22:32:41.141Z,10.27
2022-10-18T22:35:10.623Z,10.25
2022-10-18T22:37:39.731Z,10.11
2022-10-18T22:40:12.089Z,10.14
2022-10-18T22:42:41.219Z,10.12
2022-10-18T22:45:11.111Z,10.22
2022-10-18T22:47:40.132Z,10.36
2022-10-18T22:50:10.507Z,10.66
2022-10-18T22:52:39.605Z,10.73
2022-10-18T22:55:10.944Z,10.75
2022-10-18T22:57:40.150Z,10.73
2022-10-18T23:00:11.080Z,10.74
2022-10-18T23:02:40.202Z,10.81
2022-10-18T23:05:09.501Z,10.89
2022-10-18T23:07:38.616Z,10.88
2022-10-18T23:10:10.010Z,10.81
2022-10-18T23:12:39.113Z,10.70
2022-10-18T23:15:09.883Z,10.57
2022-10-18T23:17:39.518Z,10.40
2022-10-18T23:20:09.844Z,10.29
2022-10-18T23:22:38.921Z,10.14
2022-10-18T23:25:10.555Z,10.12
2022-10-18T23:27:39.764Z,10.10
2022-10-18T23:30:10.254Z,10.10
2022-10-18T23:32:41.718Z,10.10
2022-10-18T23:35:11.305Z,10.13
2022-10-18T23:37:40.421Z,10.14
2022-10-18T23:40:12.145Z,10.17
2022-10-18T23:42:41.326Z,10.21
2022-10-18T23:45:11.528Z,10.20
2022-10-18T23:47:40.678Z,10.24
2022-10-18T23:50:10.888Z,10.31
2022-10-18T23:52:40.023Z,10.41
2022-10-18T23:55:11.126Z,10.55
2022-10-18T23:57:40.257Z,10.93
